Avondale, Texas
Current Conditions -  °F | °C
As of 10:07 AM on Friday 21 Nov 2014 (Local Time) from KHRL Reporting Station
Overcast Overcast  
Wind Chill: 73°   Ceiling: 3900
Heat Index: 73°   Visibility: 10mi
Dew Point: 72°   Wind: 14mph
Humidity: 94%   Direction: 150°SSE
Pressure: 30.07"   Gusts: NA
Location:  26.2089°N, 97.6849°W
Report Text: KHRL 211607Z 15012KT 10SM FEW014 SCT024 OVC039 23/22 A3007 RMK AO2
Loading
Personal Weather Stations






























Interactive Weather Map New forecast layout! Learn more

10-Day Weather Forecast

Advertisements
Track Severe Weather on mobile